sensor_id;sensor_type;location;lat;lon;timestamp;temperature;humidity
27978;DHT22;15314;49.248;6.968;2023-06-10T00:00:43;19.10;83.10
27978;DHT22;15314;49.248;6.968;2023-06-10T00:01:45;19.10;83.00
27978;DHT22;15314;49.248;6.968;2023-06-10T00:02:47;19.00;82.60
27978;DHT22;15314;49.248;6.968;2023-06-10T00:03:49;19.10;82.90
27978;DHT22;15314;49.248;6.968;2023-06-10T00:04:50;19.10;82.60
27978;DHT22;15314;49.248;6.968;2023-06-10T00:05:50;19.00;82.40
27978;DHT22;15314;49.248;6.968;2023-06-10T00:06:51;19.10;82.50
27978;DHT22;15314;49.248;6.968;2023-06-10T00:07:54;19.10;82.70
27978;DHT22;15314;49.248;6.968;2023-06-10T00:08:55;19.00;82.80
27978;DHT22;15314;49.248;6.968;2023-06-10T00:09:56;19.00;82.90
27978;DHT22;15314;49.248;6.968;2023-06-10T00:10:57;19.00;83.30
27978;DHT22;15314;49.248;6.968;2023-06-10T00:11:58;19.00;83.30
27978;DHT22;15314;49.248;6.968;2023-06-10T00:13:02;19.00;83.00
27978;DHT22;15314;49.248;6.968;2023-06-10T00:14:04;18.90;83.30
27978;DHT22;15314;49.248;6.968;2023-06-10T00:15:05;18.90;83.10
27978;DHT22;15314;49.248;6.968;2023-06-10T00:16:06;19.00;83.00
27978;DHT22;15314;49.248;6.968;2023-06-10T00:17:07;18.90;83.30
27978;DHT22;15314;49.248;6.968;2023-06-10T00:18:11;18.80;83.50
27978;DHT22;15314;49.248;6.968;2023-06-10T00:19:12;18.90;84.20
27978;DHT22;15314;49.248;6.968;2023-06-10T00:20:16;18.80;84.20
27978;DHT22;15314;49.248;6.968;2023-06-10T00:21:17;18.80;84.00
27978;DHT22;15314;49.248;6.968;2023-06-10T00:22:19;18.80;84.10
27978;DHT22;15314;49.248;6.968;2023-06-10T00:23:20;18.70;84.50
27978;DHT22;15314;49.248;6.968;2023-06-10T00:24:21;18.80;84.50
27978;DHT22;15314;49.248;6.968;2023-06-10T00:25:22;18.70;84.30
27978;DHT22;15314;49.248;6.968;2023-06-10T00:26:23;18.80;84.70
27978;DHT22;15314;49.248;6.968;2023-06-10T00:27:24;18.70;84.90
27978;DHT22;15314;49.248;6.968;2023-06-10T00:28:26;18.70;84.90
27978;DHT22;15314;49.248;6.968;2023-06-10T00:29:27;18.70;84.80
27978;DHT22;15314;49.248;6.968;2023-06-10T00:30:28;18.70;84.70
27978;DHT22;15314;49.248;6.968;2023-06-10T00:31:28;18.70;84.80
27978;DHT22;15314;49.248;6.968;2023-06-10T00:32:30;18.70;84.60
27978;DHT22;15314;49.248;6.968;2023-06-10T00:33:31;18.70;84.80
27978;DHT22;15314;49.248;6.968;2023-06-10T00:34:32;18.70;84.80
27978;DHT22;15314;49.248;6.968;2023-06-10T00:35:32;18.60;85.10
27978;DHT22;15314;49.248;6.968;2023-06-10T00:36:33;18.60;85.60
27978;DHT22;15314;49.248;6.968;2023-06-10T00:37:34;18.60;85.60
27978;DHT22;15314;49.248;6.968;2023-06-10T00:38:36;18.60;85.70
27978;DHT22;15314;49.248;6.968;2023-06-10T00:39:36;18.50;85.60
27978;DHT22;15314;49.248;6.968;2023-06-10T00:40:40;18.50;85.70
27978;DHT22;15314;49.248;6.968;2023-06-10T00:41:41;18.50;85.70
27978;DHT22;15314;49.248;6.968;2023-06-10T00:42:42;18.50;85.90
27978;DHT22;15314;49.248;6.968;2023-06-10T00:43:42;18.50;85.70
27978;DHT22;15314;49.248;6.968;2023-06-10T00:44:43;18.50;85.80
27978;DHT22;15314;49.248;6.968;2023-06-10T00:45:44;18.50;85.30
27978;DHT22;15314;49.248;6.968;2023-06-10T00:46:45;18.50;85.90
27978;DHT22;15314;49.248;6.968;2023-06-10T00:47:46;18.50;85.80
27978;DHT22;15314;49.248;6.968;2023-06-10T00:48:47;18.50;85.80
27978;DHT22;15314;49.248;6.968;2023-06-10T00:49:49;18.50;85.70
27978;DHT22;15314;49.248;6.968;2023-06-10T00:50:50;18.50;85.80
27978;DHT22;15314;49.248;6.968;2023-06-10T00:51:51;18.50;85.50
27978;DHT22;15314;49.248;6.968;2023-06-10T00:52:53;18.50;86.10
27978;DHT22;15314;49.248;6.968;2023-06-10T00:53:55;18.50;86.10
27978;DHT22;15314;49.248;6.968;2023-06-10T00:54:55;18.50;85.60
27978;DHT22;15314;49.248;6.968;2023-06-10T00:55:56;18.50;86.00
27978;DHT22;15314;49.248;6.968;2023-06-10T00:57:00;18.50;85.90
27978;DHT22;15314;49.248;6.968;2023-06-10T00:58:01;18.50;86.10
27978;DHT22;15314;49.248;6.968;2023-06-10T00:59:03;18.40;85.70
27978;DHT22;15314;49.248;6.968;2023-06-10T01:00:04;18.50;85.50
27978;DHT22;15314;49.248;6.968;2023-06-10T01:01:08;18.50;85.90
27978;DHT22;15314;49.248;6.968;2023-06-10T01:02:11;18.40;85.90
27978;DHT22;15314;49.248;6.968;2023-06-10T01:03:12;18.40;86.00
27978;DHT22;15314;49.248;6.968;2023-06-10T01:04:13;18.40;86.00
27978;DHT22;15314;49.248;6.968;2023-06-10T01:05:14;18.40;86.00
27978;DHT22;15314;49.248;6.968;2023-06-10T01:07:42;18.40;86.50
27978;DHT22;15314;49.248;6.968;2023-06-10T01:10:36;18.40;85.70
27978;DHT22;15314;49.248;6.968;2023-06-10T01:11:23;18.40;85.50
27978;DHT22;15314;49.248;6.968;2023-06-10T01:13:06;18.40;85.60
27978;DHT22;15314;49.248;6.968;2023-06-10T01:13:50;18.40;85.50
27978;DHT22;15314;49.248;6.968;2023-06-10T01:14:52;18.40;85.40
27978;DHT22;15314;49.248;6.968;2023-06-10T01:15:53;18.40;85.20
27978;DHT22;15314;49.248;6.968;2023-06-10T01:16:54;18.40;85.40
27978;DHT22;15314;49.248;6.968;2023-06-10T01:17:56;18.40;85.80
27978;DHT22;15314;49.248;6.968;2023-06-10T01:18:58;18.40;85.90
27978;DHT22;15314;49.248;6.968;2023-06-10T01:20:00;18.40;85.60
27978;DHT22;15314;49.248;6.968;2023-06-10T01:21:03;18.40;85.40
27978;DHT22;15314;49.248;6.968;2023-06-10T01:22:04;18.40;85.20
27978;DHT22;15314;49.248;6.968;2023-06-10T01:23:06;18.40;86.00
27978;DHT22;15314;49.248;6.968;2023-06-10T01:24:07;18.30;86.10
27978;DHT22;15314;49.248;6.968;2023-06-10T01:25:11;18.30;86.20
27978;DHT22;15314;49.248;6.968;2023-06-10T01:26:14;18.30;86.30
27978;DHT22;15314;49.248;6.968;2023-06-10T01:27:16;18.30;86.50
27978;DHT22;15314;49.248;6.968;2023-06-10T01:28:36;18.30;86.80
27978;DHT22;15314;49.248;6.968;2023-06-10T01:29:45;18.30;87.00
27978;DHT22;15314;49.248;6.968;2023-06-10T01:32:15;18.20;87.90
27978;DHT22;15314;49.248;6.968;2023-06-10T01:33:21;18.10;87.40
27978;DHT22;15314;49.248;6.968;2023-06-10T01:34:24;18.20;87.90
27978;DHT22;15314;49.248;6.968;2023-06-10T01:35:25;18.10;87.90
27978;DHT22;15314;49.248;6.968;2023-06-10T01:36:27;18.10;88.10
27978;DHT22;15314;49.248;6.968;2023-06-10T01:37:28;18.10;88.30
27978;DHT22;15314;49.248;6.968;2023-06-10T01:38:42;18.10;88.70
27978;DHT22;15314;49.248;6.968;2023-06-10T01:39:43;18.00;88.90
27978;DHT22;15314;49.248;6.968;2023-06-10T01:40:43;18.00;88.70
27978;DHT22;15314;49.248;6.968;2023-06-10T01:41:47;17.90;89.30
27978;DHT22;15314;49.248;6.968;2023-06-10T01:42:48;17.80;89.30
27978;DHT22;15314;49.248;6.968;2023-06-10T01:43:49;17.80;89.80
27978;DHT22;15314;49.248;6.968;2023-06-10T01:44:49;17.80;89.60
27978;DHT22;15314;49.248;6.968;2023-06-10T01:45:50;17.80;89.40
27978;DHT22;15314;49.248;6.968;2023-06-10T01:46:51;17.80;89.30
27978;DHT22;15314;49.248;6.968;2023-06-10T01:47:52;17.80;89.10
27978;DHT22;15314;49.248;6.968;2023-06-10T01:48:53;17.80;88.90
27978;DHT22;15314;49.248;6.968;2023-06-10T01:49:53;17.90;89.40
27978;DHT22;15314;49.248;6.968;2023-06-10T01:50:54;17.90;88.80
27978;DHT22;15314;49.248;6.968;2023-06-10T01:51:56;17.90;88.80
27978;DHT22;15314;49.248;6.968;2023-06-10T01:52:58;17.90;88.60
27978;DHT22;15314;49.248;6.968;2023-06-10T01:53:58;17.90;88.60
27978;DHT22;15314;49.248;6.968;2023-06-10T01:54:59;17.90;89.00
27978;DHT22;15314;49.248;6.968;2023-06-10T01:56:00;17.80;89.10
27978;DHT22;15314;49.248;6.968;2023-06-10T01:57:01;17.80;89.70
27978;DHT22;15314;49.248;6.968;2023-06-10T01:58:02;17.80;90.00
27978;DHT22;15314;49.248;6.968;2023-06-10T01:59:03;17.70;90.20
27978;DHT22;15314;49.248;6.968;2023-06-10T02:00:06;17.70;90.20
27978;DHT22;15314;49.248;6.968;2023-06-10T02:01:08;17.70;90.30
27978;DHT22;15314;49.248;6.968;2023-06-10T02:02:08;17.60;90.40
27978;DHT22;15314;49.248;6.968;2023-06-10T02:03:09;17.60;90.50
27978;DHT22;15314;49.248;6.968;2023-06-10T02:04:10;17.70;90.50
27978;DHT22;15314;49.248;6.968;2023-06-10T02:05:10;17.50;90.60
27978;DHT22;15314;49.248;6.968;2023-06-10T02:06:13;17.50;90.80
27978;DHT22;15314;49.248;6.968;2023-06-10T02:07:14;17.50;90.80
27978;DHT22;15314;49.248;6.968;2023-06-10T02:08:14;17.50;90.60
27978;DHT22;15314;49.248;6.968;2023-06-10T02:09:15;17.60;90.70
27978;DHT22;15314;49.248;6.968;2023-06-10T02:10:16;17.60;90.80
27978;DHT22;15314;49.248;6.968;2023-06-10T02:11:16;17.60;90.70
27978;DHT22;15314;49.248;6.968;2023-06-10T02:12:17;17.50;90.70
27978;DHT22;15314;49.248;6.968;2023-06-10T02:13:18;17.50;90.70
27978;DHT22;15314;49.248;6.968;2023-06-10T02:14:18;17.60;90.50
27978;DHT22;15314;49.248;6.968;2023-06-10T02:15:19;17.60;90.50
27978;DHT22;15314;49.248;6.968;2023-06-10T02:16:20;17.60;90.50
27978;DHT22;15314;49.248;6.968;2023-06-10T02:17:21;17.70;90.50
27978;DHT22;15314;49.248;6.968;2023-06-10T02:18:23;17.60;90.60
27978;DHT22;15314;49.248;6.968;2023-06-10T02:19:24;17.60;90.70
27978;DHT22;15314;49.248;6.968;2023-06-10T02:20:29;17.60;90.80
27978;DHT22;15314;49.248;6.968;2023-06-10T02:21:30;17.60;90.80
27978;DHT22;15314;49.248;6.968;2023-06-10T02:22:30;17.60;90.60
27978;DHT22;15314;49.248;6.968;2023-06-10T02:23:31;17.50;90.70
27978;DHT22;15314;49.248;6.968;2023-06-10T02:24:32;17.60;90.70
27978;DHT22;15314;49.248;6.968;2023-06-10T02:25:32;17.60;90.60
27978;DHT22;15314;49.248;6.968;2023-06-10T02:26:33;17.60;90.60
27978;DHT22;15314;49.248;6.968;2023-06-10T02:27:33;17.60;90.70
27978;DHT22;15314;49.248;6.968;2023-06-10T02:28:34;17.60;90.70
27978;DHT22;15314;49.248;6.968;2023-06-10T02:29:35;17.60;90.80
27978;DHT22;15314;49.248;6.968;2023-06-10T02:30:38;17.60;90.80
27978;DHT22;15314;49.248;6.968;2023-06-10T02:31:39;17.70;90.60
27978;DHT22;15314;49.248;6.968;2023-06-10T02:32:40;17.70;90.60
27978;DHT22;15314;49.248;6.968;2023-06-10T02:33:41;17.70;90.60
27978;DHT22;15314;49.248;6.968;2023-06-10T02:34:42;17.70;90.70
27978;DHT22;15314;49.248;6.968;2023-06-10T02:35:46;17.70;90.80
27978;DHT22;15314;49.248;6.968;2023-06-10T02:36:46;17.60;90.60
27978;DHT22;15314;49.248;6.968;2023-06-10T02:37:49;17.60;90.80
27978;DHT22;15314;49.248;6.968;2023-06-10T02:38:51;17.60;90.80
27978;DHT22;15314;49.248;6.968;2023-06-10T02:39:51;17.60;91.10
27978;DHT22;15314;49.248;6.968;2023-06-10T02:40:52;17.60;90.90
27978;DHT22;15314;49.248;6.968;2023-06-10T02:41:53;17.60;90.80
27978;DHT22;15314;49.248;6.968;2023-06-10T02:42:53;17.60;90.80
27978;DHT22;15314;49.248;6.968;2023-06-10T02:43:54;17.60;90.80
27978;DHT22;15314;49.248;6.968;2023-06-10T02:44:55;17.60;90.70
27978;DHT22;15314;49.248;6.968;2023-06-10T02:45:55;17.70;90.70
27978;DHT22;15314;49.248;6.968;2023-06-10T02:46:56;17.70;90.60
27978;DHT22;15314;49.248;6.968;2023-06-10T02:47:57;17.70;90.70
27978;DHT22;15314;49.248;6.968;2023-06-10T02:48:57;17.70;90.80
27978;DHT22;15314;49.248;6.968;2023-06-10T02:49:58;17.60;90.70
27978;DHT22;15314;49.248;6.968;2023-06-10T02:50:59;17.70;90.80
27978;DHT22;15314;49.248;6.968;2023-06-10T02:52:00;17.70;90.60
27978;DHT22;15314;49.248;6.968;2023-06-10T02:53:00;17.70;90.60
27978;DHT22;15314;49.248;6.968;2023-06-10T02:54:01;17.70;90.60
27978;DHT22;15314;49.248;6.968;2023-06-10T02:55:02;17.70;90.70
27978;DHT22;15314;49.248;6.968;2023-06-10T02:56:03;17.70;90.80
27978;DHT22;15314;49.248;6.968;2023-06-10T02:57:04;17.70;90.80
27978;DHT22;15314;49.248;6.968;2023-06-10T02:58:05;17.70;90.90
27978;DHT22;15314;49.248;6.968;2023-06-10T02:59:06;17.60;91.10
27978;DHT22;15314;49.248;6.968;2023-06-10T03:00:08;17.60;91.00
27978;DHT22;15314;49.248;6.968;2023-06-10T03:01:12;17.60;91.10
27978;DHT22;15314;49.248;6.968;2023-06-10T03:02:13;17.60;91.10
27978;DHT22;15314;49.248;6.968;2023-06-10T03:03:13;17.60;91.10
27978;DHT22;15314;49.248;6.968;2023-06-10T03:04:14;17.60;91.20
27978;DHT22;15314;49.248;6.968;2023-06-10T03:05:15;17.60;91.40
27978;DHT22;15314;49.248;6.968;2023-06-10T03:06:17;17.60;91.10
27978;DHT22;15314;49.248;6.968;2023-06-10T03:07:18;17.50;91.30
27978;DHT22;15314;49.248;6.968;2023-06-10T03:08:21;17.50;91.40
27978;DHT22;15314;49.248;6.968;2023-06-10T03:09:21;17.60;91.30
27978;DHT22;15314;49.248;6.968;2023-06-10T03:10:22;17.50;91.20
27978;DHT22;15314;49.248;6.968;2023-06-10T03:11:23;17.60;91.30
27978;DHT22;15314;49.248;6.968;2023-06-10T03:12:23;17.60;91.40
27978;DHT22;15314;49.248;6.968;2023-06-10T03:13:24;17.60;91.30
27978;DHT22;15314;49.248;6.968;2023-06-10T03:14:25;17.60;91.30
27978;DHT22;15314;49.248;6.968;2023-06-10T03:15:26;17.60;91.10
27978;DHT22;15314;49.248;6.968;2023-06-10T03:16:29;17.50;91.10
27978;DHT22;15314;49.248;6.968;2023-06-10T03:17:32;17.60;91.10
27978;DHT22;15314;49.248;6.968;2023-06-10T03:18:33;17.60;91.10
27978;DHT22;15314;49.248;6.968;2023-06-10T03:19:34;17.60;91.00
27978;DHT22;15314;49.248;6.968;2023-06-10T03:20:35;17.60;90.80
27978;DHT22;15314;49.248;6.968;2023-06-10T03:21:37;17.60;90.80
27978;DHT22;15314;49.248;6.968;2023-06-10T03:22:38;17.60;90.90
27978;DHT22;15314;49.248;6.968;2023-06-10T03:23:39;17.60;90.80
27978;DHT22;15314;49.248;6.968;2023-06-10T03:24:40;17.70;90.90
27978;DHT22;15314;49.248;6.968;2023-06-10T03:25:41;17.60;90.80
27978;DHT22;15314;49.248;6.968;2023-06-10T03:26:41;17.70;90.70
27978;DHT22;15314;49.248;6.968;2023-06-10T03:27:42;17.70;90.80
27978;DHT22;15314;49.248;6.968;2023-06-10T03:28:43;17.60;90.80
27978;DHT22;15314;49.248;6.968;2023-06-10T03:29:44;17.60;90.80
27978;DHT22;15314;49.248;6.968;2023-06-10T03:30:44;17.60;90.80
27978;DHT22;15314;49.248;6.968;2023-06-10T03:31:45;17.60;90.90
27978;DHT22;15314;49.248;6.968;2023-06-10T03:32:45;17.70;90.90
27978;DHT22;15314;49.248;6.968;2023-06-10T03:33:46;17.60;90.90
27978;DHT22;15314;49.248;6.968;2023-06-10T03:34:47;17.60;90.80
27978;DHT22;15314;49.248;6.968;2023-06-10T03:35:48;17.60;90.90
27978;DHT22;15314;49.248;6.968;2023-06-10T03:36:49;17.60;90.90
27978;DHT22;15314;49.248;6.968;2023-06-10T03:37:50;17.60;90.80
27978;DHT22;15314;49.248;6.968;2023-06-10T03:38:50;17.60;91.00
27978;DHT22;15314;49.248;6.968;2023-06-10T03:39:52;17.60;91.00
27978;DHT22;15314;49.248;6.968;2023-06-10T03:40:53;17.60;91.20
27978;DHT22;15314;49.248;6.968;2023-06-10T03:41:53;17.50;91.00
27978;DHT22;15314;49.248;6.968;2023-06-10T03:42:54;17.50;91.00
27978;DHT22;15314;49.248;6.968;2023-06-10T03:43:54;17.50;91.00
27978;DHT22;15314;49.248;6.968;2023-06-10T03:44:55;17.60;91.00
27978;DHT22;15314;49.248;6.968;2023-06-10T03:45:56;17.50;91.00
27978;DHT22;15314;49.248;6.968;2023-06-10T03:46:57;17.50;91.00
27978;DHT22;15314;49.248;6.968;2023-06-10T03:48:01;17.50;91.10
27978;DHT22;15314;49.248;6.968;2023-06-10T03:49:02;17.60;91.00
27978;DHT22;15314;49.248;6.968;2023-06-10T03:50:04;17.60;91.00
27978;DHT22;15314;49.248;6.968;2023-06-10T03:51:05;17.60;91.10
27978;DHT22;15314;49.248;6.968;2023-06-10T03:52:06;17.60;91.00
27978;DHT22;15314;49.248;6.968;2023-06-10T03:53:07;17.50;91.10
27978;DHT22;15314;49.248;6.968;2023-06-10T03:54:07;17.60;91.20
27978;DHT22;15314;49.248;6.968;2023-06-10T03:55:08;17.60;91.20
27978;DHT22;15314;49.248;6.968;2023-06-10T03:56:09;17.60;91.30
27978;DHT22;15314;49.248;6.968;2023-06-10T03:57:11;17.50;91.10
27978;DHT22;15314;49.248;6.968;2023-06-10T03:58:11;17.60;91.20
27978;DHT22;15314;49.248;6.968;2023-06-10T03:59:15;17.60;91.20
27978;DHT22;15314;49.248;6.968;2023-06-10T04:00:16;17.60;91.30
27978;DHT22;15314;49.248;6.968;2023-06-10T04:01:17;17.60;91.20
27978;DHT22;15314;49.248;6.968;2023-06-10T04:02:21;17.60;91.20
27978;DHT22;15314;49.248;6.968;2023-06-10T04:03:22;17.60;91.20
27978;DHT22;15314;49.248;6.968;2023-06-10T04:04:24;17.60;91.30
27978;DHT22;15314;49.248;6.968;2023-06-10T04:05:27;17.60;91.30
27978;DHT22;15314;49.248;6.968;2023-06-10T04:06:29;17.60;91.40
27978;DHT22;15314;49.248;6.968;2023-06-10T04:07:30;17.60;91.40
27978;DHT22;15314;49.248;6.968;2023-06-10T04:08:31;17.60;91.30
27978;DHT22;15314;49.248;6.968;2023-06-10T04:09:33;17.50;91.40
27978;DHT22;15314;49.248;6.968;2023-06-10T04:10:34;17.60;91.40
27978;DHT22;15314;49.248;6.968;2023-06-10T04:11:34;17.60;91.40
27978;DHT22;15314;49.248;6.968;2023-06-10T04:12:36;17.60;91.50
27978;DHT22;15314;49.248;6.968;2023-06-10T04:13:36;17.60;91.50
27978;DHT22;15314;49.248;6.968;2023-06-10T04:14:37;17.60;91.40
27978;DHT22;15314;49.248;6.968;2023-06-10T04:15:38;17.60;91.60
27978;DHT22;15314;49.248;6.968;2023-06-10T04:16:39;17.60;91.60
27978;DHT22;15314;49.248;6.968;2023-06-10T04:17:39;17.60;91.60
27978;DHT22;15314;49.248;6.968;2023-06-10T04:18:40;17.60;91.50
27978;DHT22;15314;49.248;6.968;2023-06-10T04:19:42;17.60;91.60
27978;DHT22;15314;49.248;6.968;2023-06-10T04:20:42;17.60;91.40
27978;DHT22;15314;49.248;6.968;2023-06-10T04:21:44;17.70;91.40
27978;DHT22;15314;49.248;6.968;2023-06-10T04:22:45;17.70;91.30
27978;DHT22;15314;49.248;6.968;2023-06-10T04:23:45;17.70;91.70
27978;DHT22;15314;49.248;6.968;2023-06-10T04:24:46;17.60;91.90
27978;DHT22;15314;49.248;6.968;2023-06-10T04:25:47;17.60;92.00
27978;DHT22;15314;49.248;6.968;2023-06-10T04:26:48;17.60;92.10
27978;DHT22;15314;49.248;6.968;2023-06-10T04:27:48;17.50;92.30
27978;DHT22;15314;49.248;6.968;2023-06-10T04:28:49;17.50;92.00
27978;DHT22;15314;49.248;6.968;2023-06-10T04:29:49;17.50;92.20
27978;DHT22;15314;49.248;6.968;2023-06-10T04:30:50;17.50;92.10
27978;DHT22;15314;49.248;6.968;2023-06-10T04:31:51;17.50;92.20
27978;DHT22;15314;49.248;6.968;2023-06-10T04:32:51;17.50;92.20
27978;DHT22;15314;49.248;6.968;2023-06-10T04:33:52;17.50;92.30
27978;DHT22;15314;49.248;6.968;2023-06-10T04:34:53;17.50;92.30
27978;DHT22;15314;49.248;6.968;2023-06-10T04:35:54;17.50;92.30
27978;DHT22;15314;49.248;6.968;2023-06-10T04:36:55;17.50;92.30
27978;DHT22;15314;49.248;6.968;2023-06-10T04:37:55;17.50;92.30
27978;DHT22;15314;49.248;6.968;2023-06-10T04:38:56;17.60;92.10
27978;DHT22;15314;49.248;6.968;2023-06-10T04:39:57;17.60;91.90
27978;DHT22;15314;49.248;6.968;2023-06-10T04:40:58;17.70;92.00
27978;DHT22;15314;49.248;6.968;2023-06-10T04:41:59;17.80;91.90
27978;DHT22;15314;49.248;6.968;2023-06-10T04:43:00;17.80;91.90
27978;DHT22;15314;49.248;6.968;2023-06-10T04:44:01;17.90;91.90
27978;DHT22;15314;49.248;6.968;2023-06-10T04:45:02;17.90;91.60
27978;DHT22;15314;49.248;6.968;2023-06-10T04:46:04;17.90;91.70
27978;DHT22;15314;49.248;6.968;2023-06-10T04:47:05;17.90;91.80
27978;DHT22;15314;49.248;6.968;2023-06-10T04:48:08;17.90;91.60
27978;DHT22;15314;49.248;6.968;2023-06-10T04:49:08;18.00;91.50
27978;DHT22;15314;49.248;6.968;2023-06-10T04:50:09;18.00;91.50
27978;DHT22;15314;49.248;6.968;2023-06-10T04:51:10;18.00;91.50
27978;DHT22;15314;49.248;6.968;2023-06-10T04:52:10;18.00;91.50
27978;DHT22;15314;49.248;6.968;2023-06-10T04:53:11;18.10;91.60
27978;DHT22;15314;49.248;6.968;2023-06-10T04:54:12;18.10;91.40
27978;DHT22;15314;49.248;6.968;2023-06-10T04:55:12;18.10;91.30
27978;DHT22;15314;49.248;6.968;2023-06-10T04:56:13;18.20;91.50
27978;DHT22;15314;49.248;6.968;2023-06-10T04:57:15;18.20;91.30
27978;DHT22;15314;49.248;6.968;2023-06-10T04:58:15;18.20;91.30
27978;DHT22;15314;49.248;6.968;2023-06-10T04:59:16;18.30;91.30
27978;DHT22;15314;49.248;6.968;2023-06-10T05:00:17;18.30;91.10
27978;DHT22;15314;49.248;6.968;2023-06-10T05:01:18;18.30;91.10
27978;DHT22;15314;49.248;6.968;2023-06-10T05:02:18;18.40;91.50
27978;DHT22;15314;49.248;6.968;2023-06-10T05:03:19;18.40;91.10
27978;DHT22;15314;49.248;6.968;2023-06-10T05:04:19;18.40;91.10
27978;DHT22;15314;49.248;6.968;2023-06-10T05:05:20;18.40;91.00
27978;DHT22;15314;49.248;6.968;2023-06-10T05:06:21;18.50;91.00
27978;DHT22;15314;49.248;6.968;2023-06-10T05:07:22;18.50;90.90
27978;DHT22;15314;49.248;6.968;2023-06-10T05:08:22;18.50;90.80
27978;DHT22;15314;49.248;6.968;2023-06-10T05:09:23;18.60;90.90
27978;DHT22;15314;49.248;6.968;2023-06-10T05:10:23;18.60;91.10
27978;DHT22;15314;49.248;6.968;2023-06-10T05:11:24;18.60;90.90
27978;DHT22;15314;49.248;6.968;2023-06-10T05:12:26;18.60;90.70
27978;DHT22;15314;49.248;6.968;2023-06-10T05:13:26;18.60;90.60
27978;DHT22;15314;49.248;6.968;2023-06-10T05:14:27;18.70;91.00
27978;DHT22;15314;49.248;6.968;2023-06-10T05:15:28;18.70;90.90
27978;DHT22;15314;49.248;6.968;2023-06-10T05:16:28;18.70;90.90
27978;DHT22;15314;49.248;6.968;2023-06-10T05:17:29;18.80;90.80
27978;DHT22;15314;49.248;6.968;2023-06-10T05:18:30;18.80;90.70
27978;DHT22;15314;49.248;6.968;2023-06-10T05:19:31;18.90;90.40
27978;DHT22;15314;49.248;6.968;2023-06-10T05:20:32;18.90;90.60
27978;DHT22;15314;49.248;6.968;2023-06-10T05:21:33;18.90;90.40
27978;DHT22;15314;49.248;6.968;2023-06-10T05:22:34;19.00;90.70
27978;DHT22;15314;49.248;6.968;2023-06-10T05:23:35;19.00;90.60
27978;DHT22;15314;49.248;6.968;2023-06-10T05:24:35;19.00;90.60
27978;DHT22;15314;49.248;6.968;2023-06-10T05:25:36;19.10;90.30
27978;DHT22;15314;49.248;6.968;2023-06-10T05:26:36;19.20;90.20
27978;DHT22;15314;49.248;6.968;2023-06-10T05:27:41;19.20;90.20
27978;DHT22;15314;49.248;6.968;2023-06-10T05:28:43;19.20;90.00
27978;DHT22;15314;49.248;6.968;2023-06-10T05:29:43;19.30;90.30
27978;DHT22;15314;49.248;6.968;2023-06-10T05:30:45;19.30;90.60
27978;DHT22;15314;49.248;6.968;2023-06-10T05:31:46;19.30;90.50
27978;DHT22;15314;49.248;6.968;2023-06-10T05:32:47;19.30;90.30
27978;DHT22;15314;49.248;6.968;2023-06-10T05:33:48;19.40;90.30
27978;DHT22;15314;49.248;6.968;2023-06-10T05:34:49;19.40;90.20
27978;DHT22;15314;49.248;6.968;2023-06-10T05:35:49;19.50;90.10
27978;DHT22;15314;49.248;6.968;2023-06-10T05:36:50;19.50;90.20
27978;DHT22;15314;49.248;6.968;2023-06-10T05:37:51;19.50;89.90
27978;DHT22;15314;49.248;6.968;2023-06-10T05:38:51;19.70;89.30
27978;DHT22;15314;49.248;6.968;2023-06-10T05:39:52;19.70;89.20
27978;DHT22;15314;49.248;6.968;2023-06-10T05:40:53;19.70;89.10
27978;DHT22;15314;49.248;6.968;2023-06-10T05:41:53;19.80;89.20
27978;DHT22;15314;49.248;6.968;2023-06-10T05:42:54;19.80;88.80
27978;DHT22;15314;49.248;6.968;2023-06-10T05:43:55;19.90;89.30
27978;DHT22;15314;49.248;6.968;2023-06-10T05:44:55;19.90;88.40
27978;DHT22;15314;49.248;6.968;2023-06-10T05:45:56;20.00;89.60
27978;DHT22;15314;49.248;6.968;2023-06-10T05:46:57;20.00;88.70
27978;DHT22;15314;49.248;6.968;2023-06-10T05:47:57;20.00;88.70
27978;DHT22;15314;49.248;6.968;2023-06-10T05:48:58;20.10;88.60
27978;DHT22;15314;49.248;6.968;2023-06-10T05:49:58;20.00;88.30
27978;DHT22;15314;49.248;6.968;2023-06-10T05:50:59;20.10;88.20
27978;DHT22;15314;49.248;6.968;2023-06-10T05:52:00;20.10;88.60
27978;DHT22;15314;49.248;6.968;2023-06-10T05:53:00;20.10;89.20
27978;DHT22;15314;49.248;6.968;2023-06-10T05:54:01;20.20;88.80
27978;DHT22;15314;49.248;6.968;2023-06-10T05:55:04;20.20;87.80
27978;DHT22;15314;49.248;6.968;2023-06-10T05:56:06;20.30;87.90
27978;DHT22;15314;49.248;6.968;2023-06-10T05:57:06;20.30;87.70
27978;DHT22;15314;49.248;6.968;2023-06-10T05:58:07;20.40;87.80
27978;DHT22;15314;49.248;6.968;2023-06-10T05:59:08;20.40;88.00
27978;DHT22;15314;49.248;6.968;2023-06-10T06:00:09;20.50;88.20
27978;DHT22;15314;49.248;6.968;2023-06-10T06:01:10;20.60;88.10
27978;DHT22;15314;49.248;6.968;2023-06-10T06:02:10;20.60;88.60
27978;DHT22;15314;49.248;6.968;2023-06-10T06:03:12;20.60;88.30
27978;DHT22;15314;49.248;6.968;2023-06-10T06:04:12;20.60;87.40
27978;DHT22;15314;49.248;6.968;2023-06-10T06:05:13;20.80;88.00
27978;DHT22;15314;49.248;6.968;2023-06-10T06:06:14;21.10;87.90
27978;DHT22;15314;49.248;6.968;2023-06-10T06:07:14;21.70;85.70
27978;DHT22;15314;49.248;6.968;2023-06-10T06:08:15;22.50;83.80
27978;DHT22;15314;49.248;6.968;2023-06-10T06:09:18;23.30;81.70
27978;DHT22;15314;49.248;6.968;2023-06-10T06:10:19;23.90;79.30
27978;DHT22;15314;49.248;6.968;2023-06-10T06:11:20;23.90;78.60
27978;DHT22;15314;49.248;6.968;2023-06-10T06:12:20;23.70;78.10
27978;DHT22;15314;49.248;6.968;2023-06-10T06:13:21;23.50;78.80
27978;DHT22;15314;49.248;6.968;2023-06-10T06:14:22;23.20;79.50
27978;DHT22;15314;49.248;6.968;2023-06-10T06:15:22;22.90;80.20
27978;DHT22;15314;49.248;6.968;2023-06-10T06:16:23;22.70;80.50
27978;DHT22;15314;49.248;6.968;2023-06-10T06:17:24;22.50;81.50
27978;DHT22;15314;49.248;6.968;2023-06-10T06:18:24;22.40;82.50
27978;DHT22;15314;49.248;6.968;2023-06-10T06:19:25;22.20;82.90
27978;DHT22;15314;49.248;6.968;2023-06-10T06:20:26;22.10;82.80
27978;DHT22;15314;49.248;6.968;2023-06-10T06:21:26;22.00;83.40
27978;DHT22;15314;49.248;6.968;2023-06-10T06:22:27;22.00;83.70
27978;DHT22;15314;49.248;6.968;2023-06-10T06:23:27;22.00;83.90
27978;DHT22;15314;49.248;6.968;2023-06-10T06:24:28;22.00;83.80
27978;DHT22;15314;49.248;6.968;2023-06-10T06:25:29;21.90;83.60
27978;DHT22;15314;49.248;6.968;2023-06-10T06:26:29;21.90;84.20
27978;DHT22;15314;49.248;6.968;2023-06-10T06:27:31;21.90;83.50
27978;DHT22;15314;49.248;6.968;2023-06-10T06:28:31;22.00;83.30
27978;DHT22;15314;49.248;6.968;2023-06-10T06:29:32;21.90;82.70
27978;DHT22;15314;49.248;6.968;2023-06-10T06:30:33;22.00;82.40
27978;DHT22;15314;49.248;6.968;2023-06-10T06:31:33;21.90;81.30